N0,26 Fumimaru — JK5398 — position and weather

sailwx.info

Track history (hours):
 
Tides and Currents Weather Stations Pressure Air Temp Water Temp Dewpoint Dewpoint Depression Visibility Wind Speed Wind Dir Waves Ship Positions

N0,26 Fumimaru

Last reported at 2015-May-30 03:33 UTC. Time now 2015-May-30 06:31 UTC.
Position N 35°24' E 139°43'.

Length 39 m; draft 3.6 m.

Type: Ship. MMSI: 431400427.

Date/timePositionNaut miles runAvg speedWind from/ knotsBaromVisibWave heightAir tempDewpointWater temp
2015-May-30 03:33N 35°24' E 139°43'5 4.8
2015-May-30 02:33N 35°27' E 139°47'10 5.0
2015-May-30 00:33N 35°34' E 139°56'5 5.0
2015-May-29 23:33N 35°38' E 139°59'2 2.4
2015-May-29 22:32N 35°41' E 139°59'0 0.0
2015-May-29 21:26N 35°41' E 139°59'0 0.0
2015-May-29 20:32N 35°41' E 139°59'0 0.0
2015-May-29 19:32N 35°41' E 139°59'0 0.0
2015-May-29 18:32N 35°41' E 139°59'0 0.0
2015-May-29 17:29N 35°41' E 139°59'0 0.0
2015-May-29 16:32N 35°41' E 139°59'0 0.0
2015-May-29 15:32N 35°41' E 139°59'0 0.0
2015-May-29 14:29N 35°41' E 139°59'0 0.0
2015-May-29 13:32N 35°41' E 139°59'0 0.0
2015-May-29 12:32N 35°41' E 139°59'0 0.0
2015-May-29 11:29N 35°41' E 139°59'0 0.0
2015-May-29 10:32N 35°41' E 139°59'0 0.0
2015-May-29 09:29N 35°41' E 139°59'0 0.0
2015-May-29 08:32N 35°41' E 139°59'0 0.0
2015-May-29 07:26N 35°41' E 139°59'0 0.0
2015-May-29 06:32N 35°41' E 139°59'0 0.0
2015-May-29 05:32N 35°41' E 139°59'0 0.0
2015-May-29 04:26N 35°41' E 139°59'0 0.0
2015-May-29 03:32N 35°41' E 139°59'0 0.0
2015-May-29 02:32N 35°41' E 139°59'7 7.5
2015-May-29 01:33N 35°33' E 139°56'10 9.7
2015-May-29 00:29N 35°26' E 139°48'8 8.3
2015-May-28 23:32N 35°20' E 139°42'3 0.1
2015-May-26 23:22N 35°17' E 139°41'  
2015-May-21 11:29N 35°01' E 139°44'3 3.0
2015-May-21 10:30N 35°04' E 139°45'3 3.5
2015-May-21 09:33N 35°07' E 139°45'4 3.5
2015-May-21 08:33N 35°11' E 139°46'4 2.9
2015-May-21 07:08N 35°15' E 139°46'2 3.1
2015-May-21 06:25N 35°17' E 139°45'7 3.3
2015-May-21 04:26N 35°23' E 139°42'5 4.2
2015-May-21 03:10N 35°27' E 139°47'4 4.8
2015-May-21 02:17N 35°30' E 139°51'3 4.2
2015-May-21 01:33N 35°32' E 139°53'4 4.3
2015-May-21 00:32N 35°36' E 139°50'1 1.2
2015-May-20 23:32N 35°37' E 139°49'1 0.6
2015-May-20 22:04N 35°37' E 139°48'0 0.0
2015-May-20 21:10N 35°37' E 139°48'0 0.0
2015-May-20 20:31N 35°37' E 139°48'0 0.0
2015-May-20 19:31N 35°37' E 139°48'0 0.0
2015-May-20 18:25N 35°37' E 139°48'0 0.0
2015-May-20 17:31N 35°37' E 139°48'0 0.0
2015-May-20 16:13N 35°37' E 139°48'0 0.0
2015-May-20 15:19N 35°37' E 139°48'0 0.0
2015-May-20 14:31N 35°37' E 139°48'0 0.0
2015-May-20 13:22N 35°37' E 139°48'0 0.0
2015-May-20 11:19N 35°37' E 139°48'0 0.0
2015-May-20 10:25N 35°37' E 139°48'0 0.0
2015-May-20 09:31N 35°37' E 139°48'0 0.0
2015-May-20 07:28N 35°37' E 139°48'0 0.0
2015-May-20 06:31N 35°37' E 139°48'0 0.0
2015-May-20 05:25N 35°37' E 139°48'0 0.0
2015-May-20 04:31N 35°37' E 139°48'  
Track history (hours):
 
Tides and Currents Weather Stations Pressure Air Temp Water Temp Dewpoint Dewpoint Depression Visibility Wind Speed Wind Dir Waves Ship Positions

N0,26 Fumimaru

Last reported at 2015-May-30 03:33 UTC. Time now 2015-May-30 06:31 UTC.
Position N 35°24' E 139°43'.

Length 39 m; draft 3.6 m.

Type: Ship. MMSI: 431400427.

Date/timePositionNaut miles runAvg speedWind from/ knotsBaromVisibWave heightAir tempDewpointWater temp
2015-May-30 03:33N 35°24' E 139°43'5 4.8
2015-May-30 02:33N 35°27' E 139°47'10 5.0
2015-May-30 00:33N 35°34' E 139°56'5 5.0
2015-May-29 23:33N 35°38' E 139°59'2 2.4
2015-May-29 22:32N 35°41' E 139°59'0 0.0
2015-May-29 21:26N 35°41' E 139°59'0 0.0
2015-May-29 20:32N 35°41' E 139°59'0 0.0
2015-May-29 19:32N 35°41' E 139°59'0 0.0
2015-May-29 18:32N 35°41' E 139°59'0 0.0
2015-May-29 17:29N 35°41' E 139°59'0 0.0
2015-May-29 16:32N 35°41' E 139°59'0 0.0
2015-May-29 15:32N 35°41' E 139°59'0 0.0
2015-May-29 14:29N 35°41' E 139°59'0 0.0
2015-May-29 13:32N 35°41' E 139°59'0 0.0
2015-May-29 12:32N 35°41' E 139°59'0 0.0
2015-May-29 11:29N 35°41' E 139°59'0 0.0
2015-May-29 10:32N 35°41' E 139°59'0 0.0
2015-May-29 09:29N 35°41' E 139°59'0 0.0
2015-May-29 08:32N 35°41' E 139°59'0 0.0
2015-May-29 07:26N 35°41' E 139°59'0 0.0
2015-May-29 06:32N 35°41' E 139°59'0 0.0
2015-May-29 05:32N 35°41' E 139°59'0 0.0
2015-May-29 04:26N 35°41' E 139°59'0 0.0
2015-May-29 03:32N 35°41' E 139°59'0 0.0
2015-May-29 02:32N 35°41' E 139°59'7 7.5
2015-May-29 01:33N 35°33' E 139°56'10 9.7
2015-May-29 00:29N 35°26' E 139°48'8 8.3
2015-May-28 23:32N 35°20' E 139°42'3 0.1
2015-May-26 23:22N 35°17' E 139°41'  
2015-May-21 11:29N 35°01' E 139°44'3 3.0
2015-May-21 10:30N 35°04' E 139°45'3 3.5
2015-May-21 09:33N 35°07' E 139°45'4 3.5
2015-May-21 08:33N 35°11' E 139°46'4 2.9
2015-May-21 07:08N 35°15' E 139°46'2 3.1
2015-May-21 06:25N 35°17' E 139°45'7 3.3
2015-May-21 04:26N 35°23' E 139°42'5 4.2
2015-May-21 03:10N 35°27' E 139°47'4 4.8
2015-May-21 02:17N 35°30' E 139°51'3 4.2
2015-May-21 01:33N 35°32' E 139°53'4 4.3
2015-May-21 00:32N 35°36' E 139°50'1 1.2
2015-May-20 23:32N 35°37' E 139°49'1 0.6
2015-May-20 22:04N 35°37' E 139°48'0 0.0
2015-May-20 21:10N 35°37' E 139°48'0 0.0
2015-May-20 20:31N 35°37' E 139°48'0 0.0
2015-May-20 19:31N 35°37' E 139°48'0 0.0
2015-May-20 18:25N 35°37' E 139°48'0 0.0
2015-May-20 17:31N 35°37' E 139°48'0 0.0
2015-May-20 16:13N 35°37' E 139°48'0 0.0
2015-May-20 15:19N 35°37' E 139°48'0 0.0
2015-May-20 14:31N 35°37' E 139°48'0 0.0
2015-May-20 13:22N 35°37' E 139°48'0 0.0
2015-May-20 11:19N 35°37' E 139°48'0 0.0
2015-May-20 10:25N 35°37' E 139°48'0 0.0
2015-May-20 09:31N 35°37' E 139°48'0 0.0
2015-May-20 07:28N 35°37' E 139°48'0 0.0
2015-May-20 06:31N 35°37' E 139°48'0 0.0
2015-May-20 05:25N 35°37' E 139°48'0 0.0
2015-May-20 04:31N 35°37' E 139°48'  

Dump ship's entire track history